sensor_id;sensor_type;location;lat;lon;timestamp;pressure;altitude;pressure_sealevel;temperature;humidity
55418;BME280;41287;47.554;7.844;2023-09-19T00:01:06;97868.16;;;22.90;58.06
55418;BME280;41287;47.554;7.844;2023-09-19T00:03:34;97861.13;;;22.89;57.87
55418;BME280;41287;47.554;7.844;2023-09-19T00:06:03;97870.13;;;22.90;57.83
55418;BME280;41287;47.554;7.844;2023-09-19T00:08:30;97864.28;;;22.91;57.81
55418;BME280;41287;47.554;7.844;2023-09-19T00:10:55;97868.97;;;22.91;58.13
55418;BME280;41287;47.554;7.844;2023-09-19T00:13:21;97869.75;;;22.91;57.70
55418;BME280;41287;47.554;7.844;2023-09-19T00:15:49;97863.50;;;22.91;57.96
55418;BME280;41287;47.554;7.844;2023-09-19T00:18:15;97864.28;;;22.91;57.79
55418;BME280;41287;47.554;7.844;2023-09-19T00:20:44;97867.81;;;22.92;57.92
55418;BME280;41287;47.554;7.844;2023-09-19T00:23:13;97860.41;;;22.92;58.14
55418;BME280;41287;47.554;7.844;2023-09-19T00:25:39;97863.94;;;22.93;58.11
55418;BME280;41287;47.554;7.844;2023-09-19T00:28:05;97869.75;;;22.91;57.86
55418;BME280;41287;47.554;7.844;2023-09-19T00:30:32;97873.28;;;22.92;57.98
55418;BME280;41287;47.554;7.844;2023-09-19T00:33:00;97869.41;;;22.93;58.19
55418;BME280;41287;47.554;7.844;2023-09-19T00:35:27;97865.47;;;22.94;57.94
55418;BME280;41287;47.554;7.844;2023-09-19T00:37:52;97866.66;;;22.93;58.12
55418;BME280;41287;47.554;7.844;2023-09-19T00:40:18;97870.16;;;22.93;58.20
55418;BME280;41287;47.554;7.844;2023-09-19T00:42:45;97861.19;;;22.93;58.01
55418;BME280;41287;47.554;7.844;2023-09-19T00:45:12;97861.97;;;22.93;57.78
55418;BME280;41287;47.554;7.844;2023-09-19T00:47:39;97864.34;;;22.95;58.07
55418;BME280;41287;47.554;7.844;2023-09-19T00:50:06;97870.94;;;22.94;57.85
55418;BME280;41287;47.554;7.844;2023-09-19T00:52:39;97871.34;;;22.92;58.00
55418;BME280;41287;47.554;7.844;2023-09-19T00:55:07;97877.19;;;22.94;57.83
55418;BME280;41287;47.554;7.844;2023-09-19T00:57:34;97879.94;;;22.94;58.19
55418;BME280;41287;47.554;7.844;2023-09-19T01:00:01;97874.47;;;22.94;58.17
55418;BME280;41287;47.554;7.844;2023-09-19T01:02:31;97874.47;;;22.94;57.98
55418;BME280;41287;47.554;7.844;2023-09-19T01:04:57;97875.25;;;22.95;57.91
55418;BME280;41287;47.554;7.844;2023-09-19T01:07:27;97886.19;;;22.95;58.17
55418;BME280;41287;47.554;7.844;2023-09-19T01:09:58;97880.38;;;22.96;58.24
55418;BME280;41287;47.554;7.844;2023-09-19T01:12:35;97879.16;;;22.94;58.04
55418;BME280;41287;47.554;7.844;2023-09-19T01:32:03;97876.06;;;22.95;58.40
55418;BME280;41287;47.554;7.844;2023-09-19T01:34:49;97880.72;;;22.95;58.31
55418;BME280;41287;47.554;7.844;2023-09-19T01:37:16;97881.50;;;22.95;57.96
55418;BME280;41287;47.554;7.844;2023-09-19T01:39:57;97878.78;;;22.95;58.18
55418;BME280;41287;47.554;7.844;2023-09-19T01:50:49;97874.09;;;22.96;58.17
55418;BME280;41287;47.554;7.844;2023-09-19T01:53:44;97885.41;;;22.94;58.39
55418;BME280;41287;47.554;7.844;2023-09-19T01:56:16;97880.38;;;22.96;58.38
55418;BME280;41287;47.554;7.844;2023-09-19T01:58:48;97880.00;;;22.98;58.38
55418;BME280;41287;47.554;7.844;2023-09-19T02:01:19;97881.94;;;22.97;58.02
55418;BME280;41287;47.554;7.844;2023-09-19T02:03:47;97877.28;;;22.98;58.10
55418;BME280;41287;47.554;7.844;2023-09-19T02:06:16;97875.69;;;22.97;58.02
55418;BME280;41287;47.554;7.844;2023-09-19T02:08:43;97881.94;;;22.97;58.40
55418;BME280;41287;47.554;7.844;2023-09-19T02:11:10;97887.06;;;22.99;58.28
55418;BME280;41287;47.554;7.844;2023-09-19T02:13:36;97889.00;;;22.98;58.04
55418;BME280;41287;47.554;7.844;2023-09-19T02:16:01;97897.19;;;22.98;58.45
55418;BME280;41287;47.554;7.844;2023-09-19T02:18:29;97895.25;;;22.99;58.25
55418;BME280;41287;47.554;7.844;2023-09-19T02:20:55;97899.91;;;22.98;58.49
55418;BME280;41287;47.554;7.844;2023-09-19T02:23:21;97898.78;;;22.99;58.09
55418;BME280;41287;47.554;7.844;2023-09-19T02:25:53;97907.31;;;22.98;58.02
55418;BME280;41287;47.554;7.844;2023-09-19T02:28:19;97910.47;;;23.00;58.45
55418;BME280;41287;47.554;7.844;2023-09-19T02:30:47;97902.25;;;23.00;58.12
55418;BME280;41287;47.554;7.844;2023-09-19T02:33:14;97910.47;;;23.00;58.22
55418;BME280;41287;47.554;7.844;2023-09-19T02:35:39;97909.69;;;22.99;58.50
55418;BME280;41287;47.554;7.844;2023-09-19T02:38:06;97915.94;;;23.00;58.43
55418;BME280;41287;47.554;7.844;2023-09-19T02:40:37;97915.94;;;23.00;58.50
55418;BME280;41287;47.554;7.844;2023-09-19T02:43:02;97924.13;;;23.00;58.23
55418;BME280;41287;47.554;7.844;2023-09-19T02:45:28;97931.19;;;23.01;58.36
55418;BME280;41287;47.554;7.844;2023-09-19T02:47:55;97922.19;;;23.00;58.03
55418;BME280;41287;47.554;7.844;2023-09-19T02:50:20;97924.91;;;23.00;58.41
55418;BME280;41287;47.554;7.844;2023-09-19T02:52:46;97922.97;;;23.01;58.25
55418;BME280;41287;47.554;7.844;2023-09-19T02:55:14;97927.28;;;23.02;58.55
55418;BME280;41287;47.554;7.844;2023-09-19T02:57:48;97923.78;;;23.01;58.28
55418;BME280;41287;47.554;7.844;2023-09-19T03:00:15;97924.91;;;23.00;58.35
55418;BME280;41287;47.554;7.844;2023-09-19T03:02:41;97931.19;;;23.01;58.64
55418;BME280;41287;47.554;7.844;2023-09-19T03:05:07;97934.69;;;23.01;58.63
55418;BME280;41287;47.554;7.844;2023-09-19T03:07:32;97934.69;;;23.01;58.22
55418;BME280;41287;47.554;7.844;2023-09-19T03:09:58;97938.22;;;23.02;58.45
55418;BME280;41287;47.554;7.844;2023-09-19T03:12:25;97931.19;;;23.01;58.39
55418;BME280;41287;47.554;7.844;2023-09-19T03:14:50;97934.69;;;23.01;58.47
55418;BME280;41287;47.554;7.844;2023-09-19T03:17:15;97933.91;;;23.01;58.55
55418;BME280;41287;47.554;7.844;2023-09-19T03:19:43;97925.72;;;23.01;58.29
55418;BME280;41287;47.554;7.844;2023-09-19T03:22:12;97928.09;;;23.02;58.39
55418;BME280;41287;47.554;7.844;2023-09-19T03:24:38;97925.72;;;23.01;58.25
55418;BME280;41287;47.554;7.844;2023-09-19T03:27:03;97919.88;;;23.02;58.33
55418;BME280;41287;47.554;7.844;2023-09-19T03:29:29;97919.09;;;23.02;58.34
55418;BME280;41287;47.554;7.844;2023-09-19T03:31:54;97924.56;;;23.02;58.62
55418;BME280;41287;47.554;7.844;2023-09-19T03:34:20;97928.09;;;23.02;58.45
55418;BME280;41287;47.554;7.844;2023-09-19T03:36:45;97923.78;;;23.01;58.56
55418;BME280;41287;47.554;7.844;2023-09-19T03:39:13;97923.78;;;23.01;58.65
55418;BME280;41287;47.554;7.844;2023-09-19T03:41:40;97930.81;;;23.02;58.21
55418;BME280;41287;47.554;7.844;2023-09-19T03:44:06;97930.81;;;23.02;58.43
55418;BME280;41287;47.554;7.844;2023-09-19T03:46:32;97932.75;;;23.02;58.34
55418;BME280;41287;47.554;7.844;2023-09-19T03:48:58;97927.28;;;23.02;58.21
55418;BME280;41287;47.554;7.844;2023-09-19T03:51:23;97923.41;;;23.03;58.39
55418;BME280;41287;47.554;7.844;2023-09-19T03:53:48;97925.34;;;23.02;58.32
55418;BME280;41287;47.554;7.844;2023-09-19T03:56:16;97914.41;;;23.02;58.50
55418;BME280;41287;47.554;7.844;2023-09-19T03:58:42;97915.22;;;23.03;58.41
55418;BME280;41287;47.554;7.844;2023-09-19T04:01:09;97924.19;;;23.03;58.66
55418;BME280;41287;47.554;7.844;2023-09-19T04:03:34;97928.09;;;23.02;58.73
55418;BME280;41287;47.554;7.844;2023-09-19T04:06:15;97916.00;;;23.03;58.46
55418;BME280;41287;47.554;7.844;2023-09-19T04:08:41;97925.00;;;23.04;58.53
55418;BME280;41287;47.554;7.844;2023-09-19T04:11:07;97929.31;;;23.05;58.22
55418;BME280;41287;47.554;7.844;2023-09-19T04:13:32;97929.72;;;23.07;58.59
55418;BME280;41287;47.554;7.844;2023-09-19T04:15:58;97937.22;;;23.13;58.54
55418;BME280;41287;47.554;7.844;2023-09-19T04:18:23;97943.56;;;23.17;58.71
55418;BME280;41287;47.554;7.844;2023-09-19T04:20:52;97943.59;;;23.21;59.72
55418;BME280;41287;47.554;7.844;2023-09-19T04:23:20;97943.22;;;23.22;59.85
55418;BME280;41287;47.554;7.844;2023-09-19T04:25:46;97943.66;;;23.24;60.35
55418;BME280;41287;47.554;7.844;2023-09-19T04:28:11;97946.41;;;23.24;60.42
55418;BME280;41287;47.554;7.844;2023-09-19T04:30:39;97943.59;;;23.21;60.10
55418;BME280;41287;47.554;7.844;2023-09-19T04:33:08;97952.19;;;23.19;59.75
55418;BME280;41287;47.554;7.844;2023-09-19T04:35:35;97955.28;;;23.18;59.15
55418;BME280;41287;47.554;7.844;2023-09-19T04:38:01;97958.38;;;23.16;59.29
55418;BME280;41287;47.554;7.844;2023-09-19T04:40:28;97966.94;;;23.15;58.96
55418;BME280;41287;47.554;7.844;2023-09-19T04:42:55;97971.59;;;23.14;58.75
55418;BME280;41287;47.554;7.844;2023-09-19T04:45:24;97964.94;;;23.12;58.43
55418;BME280;41287;47.554;7.844;2023-09-19T04:47:50;97966.53;;;23.13;58.06
55418;BME280;41287;47.554;7.844;2023-09-19T04:50:15;97965.75;;;23.12;58.34
55418;BME280;41287;47.554;7.844;2023-09-19T04:52:43;97969.97;;;23.10;58.14
55418;BME280;41287;47.554;7.844;2023-09-19T04:55:15;97968.41;;;23.09;58.16
55418;BME280;41287;47.554;7.844;2023-09-19T05:00:14;97978.13;;;23.06;57.91
55418;BME280;41287;47.554;7.844;2023-09-19T05:02:42;97977.34;;;23.06;57.42
55418;BME280;41287;47.554;7.844;2023-09-19T05:05:09;97983.97;;;23.05;57.50
55418;BME280;41287;47.554;7.844;2023-09-19T05:07:42;97977.72;;;23.04;57.35
55418;BME280;41287;47.554;7.844;2023-09-19T05:10:09;97988.63;;;23.04;56.63
55418;BME280;41287;47.554;7.844;2023-09-19T05:12:39;97987.06;;;23.03;56.63
55418;BME280;41287;47.554;7.844;2023-09-19T05:15:05;97986.25;;;23.03;56.59
55418;BME280;41287;47.554;7.844;2023-09-19T05:17:32;97993.25;;;23.00;56.88
55418;BME280;41287;47.554;7.844;2023-09-19T05:19:58;97998.34;;;23.02;56.66
55418;BME280;41287;47.554;7.844;2023-09-19T05:22:26;98002.22;;;23.01;56.86
55418;BME280;41287;47.554;7.844;2023-09-19T05:24:52;98002.22;;;23.01;57.03
55418;BME280;41287;47.554;7.844;2023-09-19T05:27:18;98005.34;;;22.99;56.77
55418;BME280;41287;47.554;7.844;2023-09-19T05:29:43;98009.63;;;23.00;56.80
55418;BME280;41287;47.554;7.844;2023-09-19T05:32:11;98008.06;;;22.99;56.73
55418;BME280;41287;47.554;7.844;2023-09-19T05:34:38;98014.31;;;23.00;56.86
55418;BME280;41287;47.554;7.844;2023-09-19T05:37:04;98018.22;;;22.99;56.63
55418;BME280;41287;47.554;7.844;2023-09-19T05:39:33;98014.69;;;22.98;56.95
55418;BME280;41287;47.554;7.844;2023-09-19T05:42:01;98017.44;;;22.98;56.82
55418;BME280;41287;47.554;7.844;2023-09-19T05:44:26;98023.25;;;22.97;56.52
55418;BME280;41287;47.554;7.844;2023-09-19T05:46:53;98025.97;;;22.97;56.87
55418;BME280;41287;47.554;7.844;2023-09-19T05:49:18;98022.47;;;22.96;56.92
55418;BME280;41287;47.554;7.844;2023-09-19T05:51:46;98029.88;;;22.96;56.93
55418;BME280;41287;47.554;7.844;2023-09-19T05:54:12;98027.13;;;22.96;56.64
55418;BME280;41287;47.554;7.844;2023-09-19T05:56:38;98034.53;;;22.95;56.94
55418;BME280;41287;47.554;7.844;2023-09-19T05:59:03;98028.28;;;22.95;56.74
55418;BME280;41287;47.554;7.844;2023-09-19T06:01:30;98034.53;;;22.95;56.81
55418;BME280;41287;47.554;7.844;2023-09-19T06:03:57;98039.22;;;22.95;56.65
55418;BME280;41287;47.554;7.844;2023-09-19T06:06:25;98040.00;;;22.95;56.65
55418;BME280;41287;47.554;7.844;2023-09-19T06:08:50;98044.66;;;22.95;57.11
55418;BME280;41287;47.554;7.844;2023-09-19T06:11:15;98040.34;;;22.94;56.88
55418;BME280;41287;47.554;7.844;2023-09-19T06:13:41;98050.50;;;22.93;57.13
55418;BME280;41287;47.554;7.844;2023-09-19T06:16:08;98054.03;;;22.94;56.72
55418;BME280;41287;47.554;7.844;2023-09-19T06:18:34;98049.34;;;22.94;56.79
55418;BME280;41287;47.554;7.844;2023-09-19T06:21:00;98047.75;;;22.93;57.20
55418;BME280;41287;47.554;7.844;2023-09-19T06:23:25;98050.50;;;22.93;56.89
55418;BME280;41287;47.554;7.844;2023-09-19T06:25:52;98047.75;;;22.93;57.14
55418;BME280;41287;47.554;7.844;2023-09-19T06:28:20;98045.81;;;22.94;56.91
55418;BME280;41287;47.554;7.844;2023-09-19T06:30:51;98047.00;;;22.93;57.42
55418;BME280;41287;47.554;7.844;2023-09-19T06:33:17;98052.47;;;22.93;57.08
55418;BME280;41287;47.554;7.844;2023-09-19T06:35:43;98053.22;;;22.93;57.24
55418;BME280;41287;47.554;7.844;2023-09-19T06:38:10;98052.47;;;22.93;57.30
55418;BME280;41287;47.554;7.844;2023-09-19T06:40:38;98052.47;;;22.93;56.88
55418;BME280;41287;47.554;7.844;2023-09-19T06:43:04;98056.34;;;22.92;57.10
55418;BME280;41287;47.554;7.844;2023-09-19T06:45:30;98063.41;;;22.93;57.00
55418;BME280;41287;47.554;7.844;2023-09-19T06:47:57;98057.13;;;22.92;57.04
55418;BME280;41287;47.554;7.844;2023-09-19T06:50:25;98067.28;;;22.92;57.28
55418;BME280;41287;47.554;7.844;2023-09-19T06:52:52;98065.34;;;22.92;57.36
55418;BME280;41287;47.554;7.844;2023-09-19T06:55:19;98059.06;;;22.92;57.37
55418;BME280;41287;47.554;7.844;2023-09-19T06:57:48;98061.00;;;22.91;57.04
55418;BME280;41287;47.554;7.844;2023-09-19T07:00:14;98063.75;;;22.91;57.08
55418;BME280;41287;47.554;7.844;2023-09-19T07:05:34;98069.22;;;22.91;57.07
55418;BME280;41287;47.554;7.844;2023-09-19T07:08:03;98066.47;;;22.91;57.38
55418;BME280;41287;47.554;7.844;2023-09-19T07:10:28;98073.88;;;22.91;57.46
55418;BME280;41287;47.554;7.844;2023-09-19T07:13:01;98070.00;;;22.92;57.05
55418;BME280;41287;47.554;7.844;2023-09-19T07:15:28;98073.88;;;22.91;57.17
55418;BME280;41287;47.554;7.844;2023-09-19T07:17:54;98073.88;;;22.91;57.41
55418;BME280;41287;47.554;7.844;2023-09-19T07:20:22;98077.78;;;22.90;57.57
55418;BME280;41287;47.554;7.844;2023-09-19T07:22:50;98073.88;;;22.91;57.57
55418;BME280;41287;47.554;7.844;2023-09-19T07:25:20;98078.56;;;22.90;57.22
55418;BME280;41287;47.554;7.844;2023-09-19T07:27:46;98077.78;;;22.90;57.59
55418;BME280;41287;47.554;7.844;2023-09-19T07:30:11;98084.03;;;22.90;57.24
55418;BME280;41287;47.554;7.844;2023-09-19T07:32:37;98086.75;;;22.90;57.19
55418;BME280;41287;47.554;7.844;2023-09-19T07:35:04;98089.50;;;22.90;57.58
55418;BME280;41287;47.554;7.844;2023-09-19T07:37:31;98097.69;;;22.90;57.38
55418;BME280;41287;47.554;7.844;2023-09-19T07:40:07;98098.47;;;22.91;57.38
55418;BME280;41287;47.554;7.844;2023-09-19T07:42:36;98093.00;;;22.91;57.20
55418;BME280;41287;47.554;7.844;2023-09-19T07:45:04;98101.56;;;22.89;57.46
55418;BME280;41287;47.554;7.844;2023-09-19T07:47:30;98094.97;;;22.90;57.48
55418;BME280;41287;47.554;7.844;2023-09-19T07:49:57;98096.09;;;22.89;57.23
55418;BME280;41287;47.554;7.844;2023-09-19T07:52:22;98089.50;;;22.90;57.11
55418;BME280;41287;47.554;7.844;2023-09-19T07:54:48;98094.16;;;22.90;57.47
55418;BME280;41287;47.554;7.844;2023-09-19T07:57:14;98102.34;;;22.90;57.03
55418;BME280;41287;47.554;7.844;2023-09-19T07:59:40;98102.34;;;22.90;57.33
55418;BME280;41287;47.554;7.844;2023-09-19T08:02:07;98107.81;;;22.90;57.25
55418;BME280;41287;47.554;7.844;2023-09-19T08:04:34;98106.25;;;22.89;57.21
55418;BME280;41287;47.554;7.844;2023-09-19T08:07:00;98106.25;;;22.89;57.26
55418;BME280;41287;47.554;7.844;2023-09-19T08:09:26;98111.69;;;22.89;56.71
55418;BME280;41287;47.554;7.844;2023-09-19T08:11:51;98126.16;;;22.89;56.82
55418;BME280;41287;47.554;7.844;2023-09-19T08:14:19;98119.91;;;22.89;56.90
55418;BME280;41287;47.554;7.844;2023-09-19T08:16:44;98117.97;;;22.89;56.56
55418;BME280;41287;47.554;7.844;2023-09-19T08:19:10;98115.22;;;22.89;56.51
55418;BME280;41287;47.554;7.844;2023-09-19T08:21:35;98121.84;;;22.88;56.85
55418;BME280;41287;47.554;7.844;2023-09-19T08:24:02;98123.78;;;22.88;56.83
55418;BME280;41287;47.554;7.844;2023-09-19T08:26:30;98123.78;;;22.88;56.45
55418;BME280;41287;47.554;7.844;2023-09-19T08:28:56;98123.78;;;22.88;56.77
55418;BME280;41287;47.554;7.844;2023-09-19T08:31:22;98127.31;;;22.88;56.49
55418;BME280;41287;47.554;7.844;2023-09-19T08:33:48;98126.50;;;22.88;56.79
55418;BME280;41287;47.554;7.844;2023-09-19T08:36:14;98123.78;;;22.88;56.37
55418;BME280;41287;47.554;7.844;2023-09-19T08:38:40;98129.25;;;22.88;56.73
55418;BME280;41287;47.554;7.844;2023-09-19T08:41:07;98127.31;;;22.88;56.25
55418;BME280;41287;47.554;7.844;2023-09-19T08:43:33;98129.25;;;22.88;56.37
55418;BME280;41287;47.554;7.844;2023-09-19T08:48:31;98135.06;;;22.86;56.64
55418;BME280;41287;47.554;7.844;2023-09-19T08:51:26;98142.06;;;22.83;56.46
55418;BME280;41287;47.554;7.844;2023-09-19T08:54:05;98139.75;;;22.86;56.17
55418;BME280;41287;47.554;7.844;2023-09-19T08:56:32;98139.38;;;22.87;56.57
55418;BME280;41287;47.554;7.844;2023-09-19T08:59:02;98140.19;;;22.88;56.54
55418;BME280;41287;47.554;7.844;2023-09-19T09:01:34;98137.03;;;22.86;56.33
55418;BME280;41287;47.554;7.844;2023-09-19T09:04:01;98133.50;;;22.85;56.60
55418;BME280;41287;47.554;7.844;2023-09-19T09:06:28;98139.75;;;22.86;56.17
55418;BME280;41287;47.554;7.844;2023-09-19T09:08:54;98127.25;;;22.84;55.98
55418;BME280;41287;47.554;7.844;2023-09-19T09:11:21;98139.75;;;22.86;56.50
55418;BME280;41287;47.554;7.844;2023-09-19T09:13:50;98137.78;;;22.86;56.29
55418;BME280;41287;47.554;7.844;2023-09-19T09:16:18;98135.06;;;22.86;56.47
55418;BME280;41287;47.554;7.844;2023-09-19T09:18:44;98134.31;;;22.86;56.01
55418;BME280;41287;47.554;7.844;2023-09-19T09:21:10;98129.59;;;22.86;56.43
55418;BME280;41287;47.554;7.844;2023-09-19T09:23:35;98135.84;;;22.87;56.45
55418;BME280;41287;47.554;7.844;2023-09-19T09:26:01;98132.31;;;22.86;56.38
55418;BME280;41287;47.554;7.844;2023-09-19T09:28:32;98128.44;;;22.87;56.34
55418;BME280;41287;47.554;7.844;2023-09-19T09:30:58;98121.41;;;22.86;56.39
55418;BME280;41287;47.554;7.844;2023-09-19T09:33:24;98124.53;;;22.84;56.23
55418;BME280;41287;47.554;7.844;2023-09-19T09:38:19;98126.88;;;22.86;56.52
55418;BME280;41287;47.554;7.844;2023-09-19T09:40:49;98129.59;;;22.86;56.56
55418;BME280;41287;47.554;7.844;2023-09-19T09:43:38;98128.84;;;22.86;56.25
55418;BME280;41287;47.554;7.844;2023-09-19T09:46:16;98118.66;;;22.86;56.31
55418;BME280;41287;47.554;7.844;2023-09-19T09:48:58;98120.63;;;22.86;56.45
55418;BME280;41287;47.554;7.844;2023-09-19T09:51:50;98124.94;;;22.87;56.22
55418;BME280;41287;47.554;7.844;2023-09-19T09:54:29;98128.03;;;22.85;56.49
55418;BME280;41287;47.554;7.844;2023-09-19T09:57:10;98126.09;;;22.86;56.29
55418;BME280;41287;47.554;7.844;2023-09-19T09:59:51;98116.66;;;22.83;56.65
55418;BME280;41287;47.554;7.844;2023-09-19T10:02:28;98111.66;;;22.85;56.51
55418;BME280;41287;47.554;7.844;2023-09-19T10:04:57;98109.72;;;22.86;56.38
55418;BME280;41287;47.554;7.844;2023-09-19T10:07:40;98120.63;;;22.86;56.35
55418;BME280;41287;47.554;7.844;2023-09-19T10:10:10;98117.91;;;22.86;56.51
55418;BME280;41287;47.554;7.844;2023-09-19T10:12:45;98118.66;;;22.86;56.28
55418;BME280;41287;47.554;7.844;2023-09-19T10:15:17;98116.31;;;22.84;56.46
55418;BME280;41287;47.554;7.844;2023-09-19T10:17:46;98118.66;;;22.86;56.35
55418;BME280;41287;47.554;7.844;2023-09-19T10:20:16;98117.13;;;22.85;56.46
55418;BME280;41287;47.554;7.844;2023-09-19T10:23:10;98108.53;;;22.87;56.52
55418;BME280;41287;47.554;7.844;2023-09-19T10:25:39;98108.53;;;22.87;56.69
55418;BME280;41287;47.554;7.844;2023-09-19T10:28:06;98107.75;;;22.86;56.85
55418;BME280;41287;47.554;7.844;2023-09-19T10:30:38;98105.81;;;22.87;56.78
55418;BME280;41287;47.554;7.844;2023-09-19T10:33:08;98106.09;;;22.81;56.87
55418;BME280;41287;47.554;7.844;2023-09-19T10:35:38;98100.34;;;22.87;56.98
55418;BME280;41287;47.554;7.844;2023-09-19T10:38:06;98100.34;;;22.87;56.55
55418;BME280;41287;47.554;7.844;2023-09-19T10:40:32;98098.41;;;22.87;56.64
55418;BME280;41287;47.554;7.844;2023-09-19T10:43:04;98098.78;;;22.86;56.57
55418;BME280;41287;47.554;7.844;2023-09-19T10:45:35;98096.03;;;22.86;56.94
55418;BME280;41287;47.554;7.844;2023-09-19T10:48:03;98091.34;;;22.86;56.71
55418;BME280;41287;47.554;7.844;2023-09-19T10:50:57;98088.63;;;22.86;57.04
55418;BME280;41287;47.554;7.844;2023-09-19T10:53:31;98086.69;;;22.87;57.12
55418;BME280;41287;47.554;7.844;2023-09-19T10:56:05;98088.25;;;22.88;56.75
55418;BME280;41287;47.554;7.844;2023-09-19T10:58:35;98084.72;;;22.87;56.98
55418;BME280;41287;47.554;7.844;2023-09-19T11:01:06;98082.78;;;22.88;57.01
55418;BME280;41287;47.554;7.844;2023-09-19T11:03:41;98082.78;;;22.88;57.24
55418;BME280;41287;47.554;7.844;2023-09-19T11:09:00;98083.53;;;22.84;57.12
55418;BME280;41287;47.554;7.844;2023-09-19T11:11:42;98078.91;;;22.89;56.88
55418;BME280;41287;47.554;7.844;2023-09-19T11:30:44;98068.34;;;22.87;57.29
55418;BME280;41287;47.554;7.844;2023-09-19T11:33:21;98059.34;;;22.87;57.17
55418;BME280;41287;47.554;7.844;2023-09-19T11:36:10;98063.25;;;22.86;57.18
55418;BME280;41287;47.554;7.844;2023-09-19T11:46:29;98050.81;;;22.88;57.02
55418;BME280;41287;47.554;7.844;2023-09-19T11:49:05;98054.69;;;22.87;57.19
55418;BME280;41287;47.554;7.844;2023-09-19T11:51:40;98040.66;;;22.89;57.28
55418;BME280;41287;47.554;7.844;2023-09-19T11:54:10;98040.66;;;22.89;57.27
55418;BME280;41287;47.554;7.844;2023-09-19T11:56:45;98039.50;;;22.90;57.10
55418;BME280;41287;47.554;7.844;2023-09-19T11:59:20;98040.66;;;22.89;57.26
55418;BME280;41287;47.554;7.844;2023-09-19T12:01:51;98045.78;;;22.90;57.20
55418;BME280;41287;47.554;7.844;2023-09-19T12:04:33;98031.69;;;22.88;57.16
55418;BME280;41287;47.554;7.844;2023-09-19T12:07:00;98039.50;;;22.90;56.92
55418;BME280;41287;47.554;7.844;2023-09-19T12:09:26;98034.06;;;22.90;57.45
55418;BME280;41287;47.554;7.844;2023-09-19T12:11:52;98036.78;;;22.90;57.16
55418;BME280;41287;47.554;7.844;2023-09-19T12:14:22;98025.84;;;22.90;57.29
55418;BME280;41287;47.554;7.844;2023-09-19T12:16:57;98028.94;;;22.88;57.45
55418;BME280;41287;47.554;7.844;2023-09-19T12:19:24;98034.84;;;22.90;57.41
55418;BME280;41287;47.554;7.844;2023-09-19T12:22:00;98028.59;;;22.90;57.30
55418;BME280;41287;47.554;7.844;2023-09-19T12:24:29;98023.56;;;22.92;57.32
55418;BME280;41287;47.554;7.844;2023-09-19T12:27:00;98021.97;;;22.91;57.34
55418;BME280;41287;47.554;7.844;2023-09-19T12:29:26;98022.75;;;22.91;57.50
55418;BME280;41287;47.554;7.844;2023-09-19T12:31:57;98026.28;;;22.92;57.04
55418;BME280;41287;47.554;7.844;2023-09-19T12:34:30;98013.78;;;22.91;57.47
55418;BME280;41287;47.554;7.844;2023-09-19T12:39:41;98005.56;;;22.91;57.29
55418;BME280;41287;47.554;7.844;2023-09-19T12:42:10;98006.38;;;22.91;57.33
55418;BME280;41287;47.554;7.844;2023-09-19T12:44:41;98014.22;;;22.93;57.42
55418;BME280;41287;47.554;7.844;2023-09-19T12:47:09;98006.38;;;22.91;57.50
55418;BME280;41287;47.554;7.844;2023-09-19T12:49:35;98007.16;;;22.92;57.17
55418;BME280;41287;47.554;7.844;2023-09-19T12:52:02;98002.84;;;22.91;57.33
55418;BME280;41287;47.554;7.844;2023-09-19T12:54:41;97995.78;;;22.90;57.55
55418;BME280;41287;47.554;7.844;2023-09-19T12:57:22;98004.44;;;22.92;57.18
55418;BME280;41287;47.554;7.844;2023-09-19T12:59:52;97998.16;;;22.91;57.45
55418;BME280;41287;47.554;7.844;2023-09-19T13:02:17;97996.22;;;22.92;57.21
55418;BME280;41287;47.554;7.844;2023-09-19T13:04:52;97993.50;;;22.92;57.14
55418;BME280;41287;47.554;7.844;2023-09-19T13:07:43;97993.84;;;22.90;57.55
55418;BME280;41287;47.554;7.844;2023-09-19T13:10:15;97986.88;;;22.93;57.10
55418;BME280;41287;47.554;7.844;2023-09-19T13:12:43;97985.72;;;22.94;57.56
55418;BME280;41287;47.554;7.844;2023-09-19T13:15:15;97976.72;;;22.93;57.15
55418;BME280;41287;47.554;7.844;2023-09-19T13:17:49;97977.91;;;22.92;57.41
55418;BME280;41287;47.554;7.844;2023-09-19T13:20:27;97981.00;;;22.91;57.51
55418;BME280;41287;47.554;7.844;2023-09-19T13:22:53;97982.19;;;22.93;57.21
55418;BME280;41287;47.554;7.844;2023-09-19T13:25:21;97973.22;;;22.93;57.32
55418;BME280;41287;47.554;7.844;2023-09-19T13:27:49;97975.97;;;22.93;57.35
55418;BME280;41287;47.554;7.844;2023-09-19T13:30:18;97971.63;;;22.92;57.41
55418;BME280;41287;47.554;7.844;2023-09-19T13:32:44;97964.22;;;22.92;57.72
55418;BME280;41287;47.554;7.844;2023-09-19T13:35:09;97967.75;;;22.93;57.31
55418;BME280;41287;47.554;7.844;2023-09-19T13:37:41;97964.22;;;22.92;57.37
55418;BME280;41287;47.554;7.844;2023-09-19T13:40:10;97958.38;;;22.94;57.50
55418;BME280;41287;47.554;7.844;2023-09-19T13:42:37;97954.84;;;22.93;57.39
55418;BME280;41287;47.554;7.844;2023-09-19T13:45:06;97960.31;;;22.93;57.59
55418;BME280;41287;47.554;7.844;2023-09-19T13:47:35;97945.91;;;22.93;57.21
55418;BME280;41287;47.554;7.844;2023-09-19T13:50:03;97958.38;;;22.94;57.30
55418;BME280;41287;47.554;7.844;2023-09-19T13:52:30;97951.38;;;22.93;57.44
55418;BME280;41287;47.554;7.844;2023-09-19T13:54:56;97950.19;;;22.94;57.42
55418;BME280;41287;47.554;7.844;2023-09-19T13:57:25;97945.91;;;22.93;57.36
55418;BME280;41287;47.554;7.844;2023-09-19T13:59:51;97936.53;;;22.94;57.43
55418;BME280;41287;47.554;7.844;2023-09-19T14:02:17;97930.28;;;22.93;57.21
55418;BME280;41287;47.554;7.844;2023-09-19T14:04:48;97937.31;;;22.94;57.51
55418;BME280;41287;47.554;7.844;2023-09-19T14:07:14;97933.78;;;22.94;57.27
55418;BME280;41287;47.554;7.844;2023-09-19T14:09:40;97927.53;;;22.93;57.56
55418;BME280;41287;47.554;7.844;2023-09-19T14:12:06;97929.13;;;22.94;57.28
55418;BME280;41287;47.554;7.844;2023-09-19T14:14:32;97919.34;;;22.93;57.20